sensor_id;sensor_type;location;lat;lon;timestamp;pressure;altitude;pressure_sealevel;temperature;humidity
13367;BME280;6752;52.612;13.630;2023-07-16T00:01:50;100007.36;;;22.26;100.00
13367;BME280;6752;52.612;13.630;2023-07-16T00:06:52;100018.03;;;22.15;100.00
13367;BME280;6752;52.612;13.630;2023-07-16T00:11:55;100012.59;;;21.85;100.00
13367;BME280;6752;52.612;13.630;2023-07-16T00:16:57;100031.27;;;21.93;100.00
13367;BME280;6752;52.612;13.630;2023-07-16T00:21:59;100026.19;;;21.91;100.00
13367;BME280;6752;52.612;13.630;2023-07-16T00:27:02;100024.00;;;21.83;100.00
13367;BME280;6752;52.612;13.630;2023-07-16T00:32:04;100023.86;;;21.70;100.00
13367;BME280;6752;52.612;13.630;2023-07-16T00:37:06;100021.69;;;21.74;100.00
13367;BME280;6752;52.612;13.630;2023-07-16T00:42:09;100028.91;;;21.48;100.00
13367;BME280;6752;52.612;13.630;2023-07-16T00:47:11;100043.61;;;21.41;100.00
13367;BME280;6752;52.612;13.630;2023-07-16T00:52:15;100052.75;;;21.35;100.00
13367;BME280;6752;52.612;13.630;2023-07-16T00:57:16;100072.81;;;21.20;100.00
13367;BME280;6752;52.612;13.630;2023-07-16T01:02:18;100087.96;;;21.41;100.00
13367;BME280;6752;52.612;13.630;2023-07-16T01:07:21;100115.05;;;21.54;100.00
13367;BME280;6752;52.612;13.630;2023-07-16T01:12:23;100148.98;;;21.62;100.00
13367;BME280;6752;52.612;13.630;2023-07-16T01:17:26;100193.09;;;21.31;100.00
13367;BME280;6752;52.612;13.630;2023-07-16T01:32:59;100304.27;;;21.18;100.00
13367;BME280;6752;52.612;13.630;2023-07-16T01:38:02;100306.91;;;21.37;100.00
13367;BME280;6752;52.612;13.630;2023-07-16T01:43:04;100319.04;;;21.41;100.00
13367;BME280;6752;52.612;13.630;2023-07-16T01:48:36;100325.74;;;21.28;100.00
13367;BME280;6752;52.612;13.630;2023-07-16T01:53:33;100309.97;;;21.17;100.00
13367;BME280;6752;52.612;13.630;2023-07-16T01:58:36;100295.47;;;21.41;100.00
13367;BME280;6752;52.612;13.630;2023-07-16T02:03:38;100265.75;;;21.54;100.00
13367;BME280;6752;52.612;13.630;2023-07-16T02:08:40;100298.05;;;21.54;100.00
13367;BME280;6752;52.612;13.630;2023-07-16T02:13:43;100323.23;;;21.64;100.00
13367;BME280;6752;52.612;13.630;2023-07-16T02:18:45;100318.83;;;21.70;100.00
13367;BME280;6752;52.612;13.630;2023-07-16T02:23:48;100310.97;;;21.77;100.00
13367;BME280;6752;52.612;13.630;2023-07-16T02:28:50;100303.17;;;21.70;100.00
13367;BME280;6752;52.612;13.630;2023-07-16T02:33:52;100319.48;;;21.65;100.00
13367;BME280;6752;52.612;13.630;2023-07-16T02:38:55;100340.03;;;21.64;100.00
13367;BME280;6752;52.612;13.630;2023-07-16T02:44:00;100333.08;;;21.47;100.00
13367;BME280;6752;52.612;13.630;2023-07-16T02:49:02;100361.31;;;21.33;100.00
13367;BME280;6752;52.612;13.630;2023-07-16T02:54:05;100324.25;;;21.26;100.00
13367;BME280;6752;52.612;13.630;2023-07-16T02:59:07;100324.97;;;21.23;100.00
13367;BME280;6752;52.612;13.630;2023-07-16T03:04:10;100346.63;;;21.11;100.00
13367;BME280;6752;52.612;13.630;2023-07-16T03:09:12;100357.38;;;21.06;100.00
13367;BME280;6752;52.612;13.630;2023-07-16T03:14:14;100360.41;;;21.07;100.00
13367;BME280;6752;52.612;13.630;2023-07-16T03:19:17;100354.13;;;20.99;100.00
13367;BME280;6752;52.612;13.630;2023-07-16T03:24:19;100336.91;;;20.92;100.00
13367;BME280;6752;52.612;13.630;2023-07-16T03:29:22;100306.30;;;20.84;100.00
13367;BME280;6752;52.612;13.630;2023-07-16T03:34:24;100289.46;;;20.78;100.00
13367;BME280;6752;52.612;13.630;2023-07-16T03:39:26;100296.03;;;20.94;100.00
13367;BME280;6752;52.612;13.630;2023-07-16T03:44:29;100270.80;;;20.95;100.00
13367;BME280;6752;52.612;13.630;2023-07-16T03:49:31;100305.05;;;21.02;100.00
13367;BME280;6752;52.612;13.630;2023-07-16T03:54:33;100287.95;;;20.88;100.00
13367;BME280;6752;52.612;13.630;2023-07-16T03:59:36;100280.78;;;20.53;100.00
13367;BME280;6752;52.612;13.630;2023-07-16T04:04:38;100297.88;;;20.58;100.00
13367;BME280;6752;52.612;13.630;2023-07-16T04:09:41;100305.58;;;20.42;100.00
13367;BME280;6752;52.612;13.630;2023-07-16T04:14:43;100325.11;;;20.51;100.00
13367;BME280;6752;52.612;13.630;2023-07-16T04:19:45;100324.60;;;20.70;100.00
13367;BME280;6752;52.612;13.630;2023-07-16T04:24:48;100326.58;;;20.67;100.00
13367;BME280;6752;52.612;13.630;2023-07-16T04:29:50;100338.52;;;20.53;100.00
13367;BME280;6752;52.612;13.630;2023-07-16T04:34:53;100327.34;;;20.73;100.00
13367;BME280;6752;52.612;13.630;2023-07-16T04:39:55;100345.66;;;20.57;100.00
13367;BME280;6752;52.612;13.630;2023-07-16T04:44:57;100361.97;;;20.61;100.00
13367;BME280;6752;52.612;13.630;2023-07-16T04:50:00;100359.11;;;20.45;100.00
13367;BME280;6752;52.612;13.630;2023-07-16T04:55:02;100376.31;;;20.39;100.00
13367;BME280;6752;52.612;13.630;2023-07-16T05:00:05;100392.67;;;20.21;100.00
13367;BME280;6752;52.612;13.630;2023-07-16T05:05:07;100399.24;;;20.28;100.00
13367;BME280;6752;52.612;13.630;2023-07-16T05:10:10;100402.05;;;20.39;100.00
13367;BME280;6752;52.612;13.630;2023-07-16T05:15:12;100409.52;;;20.39;100.00
13367;BME280;6752;52.612;13.630;2023-07-16T05:20:14;100445.80;;;20.66;100.00
13367;BME280;6752;52.612;13.630;2023-07-16T05:25:17;100443.52;;;20.62;100.00
13367;BME280;6752;52.612;13.630;2023-07-16T05:30:19;100446.51;;;20.77;100.00
13367;BME280;6752;52.612;13.630;2023-07-16T05:35:22;100415.23;;;20.98;100.00
13367;BME280;6752;52.612;13.630;2023-07-16T05:40:24;100421.38;;;21.28;100.00
13367;BME280;6752;52.612;13.630;2023-07-16T05:45:26;100418.20;;;21.84;100.00
13367;BME280;6752;52.612;13.630;2023-07-16T05:50:29;100415.96;;;22.19;100.00
13367;BME280;6752;52.612;13.630;2023-07-16T05:55:31;100434.39;;;22.05;100.00
13367;BME280;6752;52.612;13.630;2023-07-16T06:00:34;100433.89;;;22.70;100.00
13367;BME280;6752;52.612;13.630;2023-07-16T06:05:36;100433.89;;;22.50;100.00
13367;BME280;6752;52.612;13.630;2023-07-16T06:10:38;100437.58;;;23.09;100.00
13367;BME280;6752;52.612;13.630;2023-07-16T06:15:41;100440.11;;;23.40;100.00
13367;BME280;6752;52.612;13.630;2023-07-16T06:20:46;100452.94;;;23.21;100.00
13367;BME280;6752;52.612;13.630;2023-07-16T06:25:48;100448.38;;;23.81;100.00
13367;BME280;6752;52.612;13.630;2023-07-16T06:30:50;100448.98;;;24.14;100.00
13367;BME280;6752;52.612;13.630;2023-07-16T06:35:52;100454.63;;;23.94;100.00
13367;BME280;6752;52.612;13.630;2023-07-16T06:40:54;100448.80;;;25.00;100.00
13367;BME280;6752;52.612;13.630;2023-07-16T06:45:57;100459.94;;;25.15;100.00
13367;BME280;6752;52.612;13.630;2023-07-16T06:50:59;100471.67;;;25.19;100.00
13367;BME280;6752;52.612;13.630;2023-07-16T06:56:01;100468.64;;;25.22;100.00
13367;BME280;6752;52.612;13.630;2023-07-16T07:01:04;100479.17;;;24.90;100.00
13367;BME280;6752;52.612;13.630;2023-07-16T07:06:06;100482.84;;;25.28;100.00
13367;BME280;6752;52.612;13.630;2023-07-16T07:11:08;100482.64;;;25.35;100.00
13367;BME280;6752;52.612;13.630;2023-07-16T07:16:11;100489.88;;;25.95;99.82
13367;BME280;6752;52.612;13.630;2023-07-16T07:21:13;100485.11;;;25.50;100.00
13367;BME280;6752;52.612;13.630;2023-07-16T07:26:16;100503.84;;;25.95;100.00
13367;BME280;6752;52.612;13.630;2023-07-16T07:31:18;100495.63;;;25.20;100.00
13367;BME280;6752;52.612;13.630;2023-07-16T07:36:20;100500.45;;;25.74;100.00
13367;BME280;6752;52.612;13.630;2023-07-16T07:41:23;100515.52;;;25.60;98.88
13367;BME280;6752;52.612;13.630;2023-07-16T07:46:25;100513.66;;;25.42;98.79
13367;BME280;6752;52.612;13.630;2023-07-16T07:51:28;100526.69;;;25.60;95.24
13367;BME280;6752;52.612;13.630;2023-07-16T07:56:30;100526.03;;;26.39;87.69
13367;BME280;6752;52.612;13.630;2023-07-16T08:01:32;100529.13;;;26.63;87.93
13367;BME280;6752;52.612;13.630;2023-07-16T08:06:34;100531.19;;;26.21;85.67
13367;BME280;6752;52.612;13.630;2023-07-16T08:11:36;100535.89;;;26.41;83.45
13367;BME280;6752;52.612;13.630;2023-07-16T08:16:38;100534.00;;;26.08;90.34
13367;BME280;6752;52.612;13.630;2023-07-16T08:21:40;100547.88;;;26.50;88.85
13367;BME280;6752;52.612;13.630;2023-07-16T08:26:42;100555.68;;;27.42;84.39
13367;BME280;6752;52.612;13.630;2023-07-16T08:31:44;100535.90;;;27.66;75.29
13367;BME280;6752;52.612;13.630;2023-07-16T08:36:46;100564.89;;;26.29;74.17
13367;BME280;6752;52.612;13.630;2023-07-16T08:41:48;100560.77;;;26.74;74.65
13367;BME280;6752;52.612;13.630;2023-07-16T08:46:50;100561.90;;;28.07;72.40
13367;BME280;6752;52.612;13.630;2023-07-16T08:51:54;100562.69;;;27.46;71.25
13367;BME280;6752;52.612;13.630;2023-07-16T08:56:56;100565.82;;;29.24;68.00
13367;BME280;6752;52.612;13.630;2023-07-16T09:01:58;100573.89;;;29.31;61.82
13367;BME280;6752;52.612;13.630;2023-07-16T09:07:00;100569.95;;;29.69;62.23
13367;BME280;6752;52.612;13.630;2023-07-16T09:12:02;100583.04;;;28.35;63.60
13367;BME280;6752;52.612;13.630;2023-07-16T09:17:04;100583.61;;;28.66;62.79
13367;BME280;6752;52.612;13.630;2023-07-16T09:22:08;100577.62;;;30.21;59.76
13367;BME280;6752;52.612;13.630;2023-07-16T09:27:10;100590.68;;;28.57;62.90
13367;BME280;6752;52.612;13.630;2023-07-16T09:32:11;100581.09;;;28.21;62.12
13367;BME280;6752;52.612;13.630;2023-07-16T09:37:13;100569.20;;;30.49;59.65
13367;BME280;6752;52.612;13.630;2023-07-16T09:42:15;100582.67;;;28.58;59.80
13367;BME280;6752;52.612;13.630;2023-07-16T09:53:24;100577.55;;;30.25;57.34
13367;BME280;6752;52.612;13.630;2023-07-16T09:58:27;100592.98;;;29.81;55.47
13367;BME280;6752;52.612;13.630;2023-07-16T10:03:32;100579.91;;;30.57;52.36
13367;BME280;6752;52.612;13.630;2023-07-16T10:08:35;100578.45;;;30.69;52.04
13367;BME280;6752;52.612;13.630;2023-07-16T10:13:37;100581.09;;;30.84;51.27
13367;BME280;6752;52.612;13.630;2023-07-16T10:18:49;100595.23;;;32.14;54.04
13367;BME280;6752;52.612;13.630;2023-07-16T10:23:43;100597.16;;;30.03;53.08
13367;BME280;6752;52.612;13.630;2023-07-16T10:28:44;100592.53;;;29.79;53.55
13367;BME280;6752;52.612;13.630;2023-07-16T10:33:55;100590.88;;;30.48;52.95
13367;BME280;6752;52.612;13.630;2023-07-16T10:38:49;100589.77;;;30.85;53.48
13367;BME280;6752;52.612;13.630;2023-07-16T10:43:51;100595.02;;;30.79;51.65
13367;BME280;6752;52.612;13.630;2023-07-16T10:48:54;100607.27;;;30.59;51.34
13367;BME280;6752;52.612;13.630;2023-07-16T10:53:56;100597.34;;;30.99;51.22
13367;BME280;6752;52.612;13.630;2023-07-16T10:58:58;100606.67;;;30.01;52.40
13367;BME280;6752;52.612;13.630;2023-07-16T11:04:01;100593.65;;;30.33;49.87
13367;BME280;6752;52.612;13.630;2023-07-16T11:09:06;100605.17;;;32.08;51.56
13367;BME280;6752;52.612;13.630;2023-07-16T11:14:09;100612.31;;;29.29;53.06
13367;BME280;6752;52.612;13.630;2023-07-16T11:19:11;100610.55;;;29.78;52.83
13367;BME280;6752;52.612;13.630;2023-07-16T11:24:15;100607.55;;;29.97;51.35
13367;BME280;6752;52.612;13.630;2023-07-16T11:29:17;100605.59;;;31.06;52.48
13367;BME280;6752;52.612;13.630;2023-07-16T11:34:20;100611.84;;;31.68;49.43
13367;BME280;6752;52.612;13.630;2023-07-16T11:39:25;100610.02;;;31.50;50.06
13367;BME280;6752;52.612;13.630;2023-07-16T11:44:25;100602.48;;;32.79;50.43
13367;BME280;6752;52.612;13.630;2023-07-16T11:49:27;100594.88;;;32.62;48.98
13367;BME280;6752;52.612;13.630;2023-07-16T11:54:30;100603.59;;;31.83;47.29
13367;BME280;6752;52.612;13.630;2023-07-16T11:59:32;100603.55;;;31.81;47.15
13367;BME280;6752;52.612;13.630;2023-07-16T12:04:34;100601.53;;;31.98;48.43
13367;BME280;6752;52.612;13.630;2023-07-16T12:09:37;100603.77;;;31.73;48.66
13367;BME280;6752;52.612;13.630;2023-07-16T12:14:39;100607.52;;;31.55;48.43
13367;BME280;6752;52.612;13.630;2023-07-16T12:19:41;100610.19;;;31.34;49.94
13367;BME280;6752;52.612;13.630;2023-07-16T12:24:44;100596.31;;;32.08;49.68
13367;BME280;6752;52.612;13.630;2023-07-16T12:29:46;100601.47;;;31.55;47.88
13367;BME280;6752;52.612;13.630;2023-07-16T12:34:49;100606.18;;;29.85;48.96
13367;BME280;6752;52.612;13.630;2023-07-16T12:39:53;100611.42;;;29.80;49.71
13367;BME280;6752;52.612;13.630;2023-07-16T12:44:55;100600.47;;;31.55;46.57
13367;BME280;6752;52.612;13.630;2023-07-16T12:49:58;100591.88;;;31.18;43.94
13367;BME280;6752;52.612;13.630;2023-07-16T12:55:00;100596.70;;;30.68;45.30
13367;BME280;6752;52.612;13.630;2023-07-16T13:00:02;100598.66;;;30.39;44.42
13367;BME280;6752;52.612;13.630;2023-07-16T13:05:05;100599.57;;;31.51;42.08
13367;BME280;6752;52.612;13.630;2023-07-16T13:10:07;100594.95;;;31.21;41.39
13367;BME280;6752;52.612;13.630;2023-07-16T13:15:10;100591.64;;;32.05;41.33
13367;BME280;6752;52.612;13.630;2023-07-16T13:20:12;100591.66;;;30.81;41.14
13367;BME280;6752;52.612;13.630;2023-07-16T13:25:14;100593.64;;;30.47;40.11
13367;BME280;6752;52.612;13.630;2023-07-16T13:30:16;100594.48;;;30.75;40.32
13367;BME280;6752;52.612;13.630;2023-07-16T13:35:19;100600.78;;;31.06;40.16
13367;BME280;6752;52.612;13.630;2023-07-16T13:40:21;100612.22;;;30.23;40.61
13367;BME280;6752;52.612;13.630;2023-07-16T13:45:23;100620.77;;;29.41;41.29
13367;BME280;6752;52.612;13.630;2023-07-16T13:50:26;100622.32;;;29.05;44.08
13367;BME280;6752;52.612;13.630;2023-07-16T13:55:28;100618.52;;;29.94;42.92
13367;BME280;6752;52.612;13.630;2023-07-16T14:00:31;100637.21;;;28.85;44.26
13367;BME280;6752;52.612;13.630;2023-07-16T14:05:33;100640.59;;;29.41;45.01
13367;BME280;6752;52.612;13.630;2023-07-16T14:10:35;100632.99;;;29.82;43.73
13367;BME280;6752;52.612;13.630;2023-07-16T14:15:38;100637.04;;;28.86;44.76
13367;BME280;6752;52.612;13.630;2023-07-16T14:20:40;100634.95;;;29.45;44.45
13367;BME280;6752;52.612;13.630;2023-07-16T14:25:42;100632.09;;;29.10;43.86
13367;BME280;6752;52.612;13.630;2023-07-16T14:30:45;100644.44;;;28.70;44.34
13367;BME280;6752;52.612;13.630;2023-07-16T14:35:47;100656.27;;;28.19;44.78
13367;BME280;6752;52.612;13.630;2023-07-16T14:40:50;100651.47;;;29.42;43.53
13367;BME280;6752;52.612;13.630;2023-07-16T14:45:52;100643.64;;;29.58;42.18
13367;BME280;6752;52.612;13.630;2023-07-16T14:50:54;100657.30;;;28.92;42.48
13367;BME280;6752;52.612;13.630;2023-07-16T14:55:57;100652.02;;;28.42;44.40
13367;BME280;6752;52.612;13.630;2023-07-16T15:00:59;100648.71;;;28.93;44.17
13367;BME280;6752;52.612;13.630;2023-07-16T15:06:02;100639.44;;;29.02;42.98
13367;BME280;6752;52.612;13.630;2023-07-16T15:11:04;100637.50;;;29.15;42.31
13367;BME280;6752;52.612;13.630;2023-07-16T15:16:06;100636.69;;;28.77;43.23
13367;BME280;6752;52.612;13.630;2023-07-16T15:21:09;100626.34;;;29.29;42.35
13367;BME280;6752;52.612;13.630;2023-07-16T15:26:11;100626.81;;;29.25;40.95
13367;BME280;6752;52.612;13.630;2023-07-16T15:31:13;100632.44;;;28.34;41.06
13367;BME280;6752;52.612;13.630;2023-07-16T15:36:16;100646.70;;;27.95;42.86
13367;BME280;6752;52.612;13.630;2023-07-16T15:41:19;100632.05;;;28.61;42.14
13367;BME280;6752;52.612;13.630;2023-07-16T15:46:26;100632.12;;;29.16;42.06
13367;BME280;6752;52.612;13.630;2023-07-16T15:51:29;100632.31;;;28.16;41.91
13367;BME280;6752;52.612;13.630;2023-07-16T15:56:33;100634.27;;;28.15;43.00
13367;BME280;6752;52.612;13.630;2023-07-16T16:01:36;100634.34;;;28.06;42.17
13367;BME280;6752;52.612;13.630;2023-07-16T16:06:38;100629.48;;;28.72;42.25
13367;BME280;6752;52.612;13.630;2023-07-16T16:11:40;100627.41;;;28.33;41.45
13367;BME280;6752;52.612;13.630;2023-07-16T16:16:43;100650.63;;;27.98;42.55
13367;BME280;6752;52.612;13.630;2023-07-16T16:21:45;100643.86;;;27.99;43.68
13367;BME280;6752;52.612;13.630;2023-07-16T16:26:47;100651.09;;;27.24;43.21
13367;BME280;6752;52.612;13.630;2023-07-16T16:31:50;100657.08;;;27.20;43.09
13367;BME280;6752;52.612;13.630;2023-07-16T16:36:52;100661.11;;;27.53;43.48
13367;BME280;6752;52.612;13.630;2023-07-16T16:41:54;100656.67;;;27.20;43.38
13367;BME280;6752;52.612;13.630;2023-07-16T16:46:56;100657.92;;;27.16;43.73
13367;BME280;6752;52.612;13.630;2023-07-16T16:51:59;100666.05;;;27.19;44.73
13367;BME280;6752;52.612;13.630;2023-07-16T16:57:01;100660.33;;;26.73;44.47
13367;BME280;6752;52.612;13.630;2023-07-16T17:02:03;100664.85;;;26.41;44.68
13367;BME280;6752;52.612;13.630;2023-07-16T17:07:05;100655.75;;;26.18;45.08
13367;BME280;6752;52.612;13.630;2023-07-16T17:12:08;100663.61;;;26.44;44.84
13367;BME280;6752;52.612;13.630;2023-07-16T17:17:10;100663.23;;;26.57;45.21
13367;BME280;6752;52.612;13.630;2023-07-16T17:22:13;100666.16;;;26.48;45.33
13367;BME280;6752;52.612;13.630;2023-07-16T17:27:18;100662.33;;;26.55;44.41
13367;BME280;6752;52.612;13.630;2023-07-16T17:32:20;100674.23;;;26.21;45.24
13367;BME280;6752;52.612;13.630;2023-07-16T17:37:22;100679.36;;;26.32;44.53
13367;BME280;6752;52.612;13.630;2023-07-16T17:42:25;100687.25;;;26.30;44.92
13367;BME280;6752;52.612;13.630;2023-07-16T17:47:27;100690.98;;;26.12;46.49
13367;BME280;6752;52.612;13.630;2023-07-16T17:52:30;100685.53;;;26.27;45.27
13367;BME280;6752;52.612;13.630;2023-07-16T17:57:32;100682.45;;;26.17;46.12
13367;BME280;6752;52.612;13.630;2023-07-16T18:02:34;100691.84;;;25.97;47.21
13367;BME280;6752;52.612;13.630;2023-07-16T18:07:36;100694.70;;;25.91;47.19
13367;BME280;6752;52.612;13.630;2023-07-16T18:12:39;100696.58;;;25.88;47.53
13367;BME280;6752;52.612;13.630;2023-07-16T18:17:41;100694.53;;;25.87;46.35
13367;BME280;6752;52.612;13.630;2023-07-16T18:22:43;100707.63;;;25.66;48.57
13367;BME280;6752;52.612;13.630;2023-07-16T18:27:46;100711.48;;;25.52;47.81
13367;BME280;6752;52.612;13.630;2023-07-16T18:32:48;100708.86;;;25.25;49.17
13367;BME280;6752;52.612;13.630;2023-07-16T18:37:50;100723.08;;;24.86;50.88
13367;BME280;6752;52.612;13.630;2023-07-16T18:42:56;100726.72;;;24.72;51.50
13367;BME280;6752;52.612;13.630;2023-07-16T18:47:54;100726.22;;;24.70;52.08
13367;BME280;6752;52.612;13.630;2023-07-16T18:52:57;100735.63;;;24.43;54.12
13367;BME280;6752;52.612;13.630;2023-07-16T18:57:59;100741.28;;;24.24;54.86
13367;BME280;6752;52.612;13.630;2023-07-16T19:03:01;100747.38;;;23.98;56.23
13367;BME280;6752;52.612;13.630;2023-07-16T19:08:04;100751.89;;;23.74;57.30
13367;BME280;6752;52.612;13.630;2023-07-16T19:13:06;100748.30;;;23.57;57.38
13367;BME280;6752;52.612;13.630;2023-07-16T19:18:09;100756.70;;;23.45;57.54
13367;BME280;6752;52.612;13.630;2023-07-16T19:23:11;100756.94;;;23.23;59.33
13367;BME280;6752;52.612;13.630;2023-07-16T19:28:13;100753.20;;;23.04;59.80
13367;BME280;6752;52.612;13.630;2023-07-16T19:33:16;100765.91;;;22.82;60.61
13367;BME280;6752;52.612;13.630;2023-07-16T19:38:18;100758.66;;;22.84;60.24
13367;BME280;6752;52.612;13.630;2023-07-16T19:43:20;100769.53;;;22.68;62.62
13367;BME280;6752;52.612;13.630;2023-07-16T19:48:23;100766.50;;;22.48;63.92
13367;BME280;6752;52.612;13.630;2023-07-16T19:53:25;100777.86;;;22.28;64.45
13367;BME280;6752;52.612;13.630;2023-07-16T19:58:28;100778.53;;;22.17;64.29
13367;BME280;6752;52.612;13.630;2023-07-16T20:03:30;100780.50;;;22.00;65.74
13367;BME280;6752;52.612;13.630;2023-07-16T20:08:32;100778.79;;;21.92;67.89
13367;BME280;6752;52.612;13.630;2023-07-16T20:13:35;100783.86;;;21.58;74.56
13367;BME280;6752;52.612;13.630;2023-07-16T20:18:37;100779.64;;;21.75;72.14
13367;BME280;6752;52.612;13.630;2023-07-16T20:23:39;100785.49;;;21.45;76.08
13367;BME280;6752;52.612;13.630;2023-07-16T20:28:44;100783.96;;;21.31;76.18
13367;BME280;6752;52.612;13.630;2023-07-16T20:33:47;100783.73;;;21.20;77.97
13367;BME280;6752;52.612;13.630;2023-07-16T20:38:49;100788.23;;;20.91;77.90
13367;BME280;6752;52.612;13.630;2023-07-16T20:43:51;100783.45;;;20.82;77.78
13367;BME280;6752;52.612;13.630;2023-07-16T20:48:54;100784.57;;;20.76;78.93
13367;BME280;6752;52.612;13.630;2023-07-16T20:53:56;100773.06;;;20.59;80.99
13367;BME280;6752;52.612;13.630;2023-07-16T20:58:58;100787.08;;;20.48;80.32
13367;BME280;6752;52.612;13.630;2023-07-16T21:04:01;100795.56;;;20.30;80.10
13367;BME280;6752;52.612;13.630;2023-07-16T21:09:03;100796.73;;;20.08;80.80
13367;BME280;6752;52.612;13.630;2023-07-16T21:14:05;100795.55;;;19.95;82.06
13367;BME280;6752;52.612;13.630;2023-07-16T21:19:08;100805.26;;;19.77;82.27
13367;BME280;6752;52.612;13.630;2023-07-16T21:24:10;100804.17;;;19.68;84.60
13367;BME280;6752;52.612;13.630;2023-07-16T21:29:12;100812.98;;;19.52;85.84
13367;BME280;6752;52.612;13.630;2023-07-16T21:34:15;100819.35;;;19.50;85.68
13367;BME280;6752;52.612;13.630;2023-07-16T21:39:17;100823.20;;;19.31;87.10
13367;BME280;6752;52.612;13.630;2023-07-16T21:44:19;100816.16;;;19.19;88.62
13367;BME280;6752;52.612;13.630;2023-07-16T21:49:22;100820.69;;;19.02;90.19
13367;BME280;6752;52.612;13.630;2023-07-16T21:54:24;100816.13;;;18.94;89.39
13367;BME280;6752;52.612;13.630;2023-07-16T21:59:26;100811.94;;;18.76;90.85
13367;BME280;6752;52.612;13.630;2023-07-16T22:04:29;100812.86;;;18.68;89.64
13367;BME280;6752;52.612;13.630;2023-07-16T22:09:31;100812.09;;;18.52;89.93
13367;BME280;6752;52.612;13.630;2023-07-16T22:14:33;100814.38;;;18.41;90.30
13367;BME280;6752;52.612;13.630;2023-07-16T22:19:36;100822.50;;;18.34;89.79
13367;BME280;6752;52.612;13.630;2023-07-16T22:24:38;100821.66;;;18.29;88.08
13367;BME280;6752;52.612;13.630;2023-07-16T22:29:40;100832.26;;;18.23;86.64
13367;BME280;6752;52.612;13.630;2023-07-16T22:34:43;100833.82;;;18.09;86.91
13367;BME280;6752;52.612;13.630;2023-07-16T22:39:45;100834.48;;;18.03;90.48
13367;BME280;6752;52.612;13.630;2023-07-16T22:44:48;100836.06;;;17.94;93.48
13367;BME280;6752;52.612;13.630;2023-07-16T22:49:50;100833.18;;;17.97;93.24
13367;BME280;6752;52.612;13.630;2023-07-16T22:54:52;100836.66;;;17.98;93.87
13367;BME280;6752;52.612;13.630;2023-07-16T22:59:55;100833.58;;;17.95;94.14
13367;BME280;6752;52.612;13.630;2023-07-16T23:04:57;100831.23;;;17.95;92.95
13367;BME280;6752;52.612;13.630;2023-07-16T23:09:59;100829.00;;;17.89;91.78
13367;BME280;6752;52.612;13.630;2023-07-16T23:15:02;100832.45;;;17.88;92.37
13367;BME280;6752;52.612;13.630;2023-07-16T23:20:05;100826.66;;;17.90;86.57
13367;BME280;6752;52.612;13.630;2023-07-16T23:25:07;100841.38;;;17.82;87.30
13367;BME280;6752;52.612;13.630;2023-07-16T23:30:09;100842.23;;;17.87;89.43
13367;BME280;6752;52.612;13.630;2023-07-16T23:35:12;100835.61;;;17.70;98.70
13367;BME280;6752;52.612;13.630;2023-07-16T23:40:14;100833.06;;;17.47;100.00
13367;BME280;6752;52.612;13.630;2023-07-16T23:45:16;100835.89;;;17.55;100.00
13367;BME280;6752;52.612;13.630;2023-07-16T23:50:19;100836.59;;;17.72;100.00
13367;BME280;6752;52.612;13.630;2023-07-16T23:55:21;100840.56;;;17.68;100.00
